Latest Coastal Weather Observations for Dunalley

IDT60701

Issued at 8:11 am EST Wednesday 3 June 2020 (issued every 10 minutes, with the page automatically refreshed every 10 minutes)

About coastal observations | Map of coastal stations | Coastal observations for TAS | Marine services | Other Formats
Station Details ID: 094254 Name: DUNALLEY (STROUD POINT) Lat: -42.90 Lon: 147.79 Height: 12.43 m
Data from the previous 72 hours. | See also: Recent months at Dunalley
Date/Time
EST
Wind Sea
Height
m
Swell Vis
km
Cloud Weather Temp
°C
Press
hPa
Rain since
9am
mm
Dir  Spd
kts
Gust
kts
Height
m
Period
s
Dir
03/08:00am SW 24 31 - - - - - - - 7.7 1023.5 1.2
03/07:37am SW 23 31 - - - - - - - 8.0 1023.0 0.6
03/07:30am WSW 23 31 - - - - - - - 8.9 1022.6 0.6
03/07:00am WSW 25 30 - - - - - - - 8.4 1022.0 0.6
03/06:32am SW 25 37 - - - - - - - 8.9 1021.0 0.6
03/06:30am SW 24 29 - - - - - - - 9.3 1021.2 0.6
03/06:00am SW 25 33 - - - - - - - 9.0 1020.3 0.6
03/05:30am SW 25 32 - - - - - - - 8.7 1019.6 0.6
03/05:21am SW 27 41 - - - - - - - 8.6 1019.4 0.6
03/05:18am SW 25 41 - - - - - - - 8.7 1019.3 0.6
03/05:16am SW 22 37 - - - - - - - 9.7 1019.3 0.6
03/05:00am SW 21 26 - - - - - - - 9.4 1018.8 0.6
03/04:30am SW 24 32 - - - - - - - 9.3 1018.3 0.6
03/04:00am SW 24 31 - - - - - - - 9.1 1017.4 0.6
03/03:46am SW 20 31 - - - - - - - 9.5 1017.1 0.6
03/03:30am SW 22 29 - - - - - - - 9.7 1016.4 0.6
03/03:07am SW 22 32 - - - - - - - 9.4 1016.1 0.6
03/03:00am SW 23 29 - - - - - - Recent precip. 9.6 1015.9 0.6
03/02:30am SW 25 40 - - - - - - - 7.0 1015.2 0.4
03/02:28am SW 24 40 - - - - - - - 9.4 1015.1 0.4
03/02:00am SW 24 31 - - - - - - - 9.8 1014.2 0.2
03/01:43am SW 28 40 - - - - - - - 10.0 1013.6 0.2
03/01:30am SW 28 37 - - - - - - - 9.9 1013.3 0.2
03/01:21am WSW 26 37 - - - - - - - 9.6 1013.1 0.2
03/01:00am WSW 23 29 - - - - - - - 9.4 1013.0 0.2
03/12:30am SW 22 30 - - - - - - - 10.0 1012.4 0.0
03/12:24am SW 22 30 - - - - - - - 10.2 1011.9 0.0
03/12:00am WSW 18 21 - - - - - - - 10.6 1011.2 0.0
 
Date/Time
EST
Wind Sea
Height
m
Swell Vis
km
Cloud Weather Temp
°C
Press
hPa
Rain since
9am
mm
Dir  Spd
kts
Gust
kts
Height
m
Period
s
Dir
02/11:30pm SW 24 29 - - - - - - - 10.3 1010.6 0.0
02/11:00pm WSW 20 24 - - - - - - - 10.8 1009.8 0.0
02/10:30pm W 18 21 - - - - - - - 10.6 1009.6 0.0
02/10:00pm W 17 21 - - - - - - - 10.7 1009.0 0.0
02/09:30pm W 19 23 - - - - - - - 10.6 1008.7 0.0
02/09:00pm WSW 20 26 - - - - - - - 10.8 1008.3 0.0
02/08:30pm WSW 24 30 - - - - - - - 11.1 1007.7 0.0
02/08:00pm WSW 28 33 - - - - - - - 11.6 1006.8 0.0
02/07:30pm WSW 27 35 - - - - - - - 11.9 1005.9 0.0
02/07:24pm SW 24 30 - - - - - - - 11.8 1006.1 0.0
02/07:00pm SW 15 18 - - - - - - - 11.8 1006.1 0.0
02/06:30pm WSW 21 28 - - - - - - - 12.5 1005.4 0.0
02/06:00pm WSW 16 23 - - - - - - - 12.7 1005.1 0.0
02/05:59pm WSW 15 22 - - - - - - - 12.7 1005.1 0.0
02/05:30pm WSW 9 11 - - - - - - - 12.4 1004.7 0.0
02/05:00pm WSW 12 16 - - - - - - - 12.8 1004.6 0.0
02/04:57pm W 13 20 - - - - - - - 13.2 1004.5 0.0
02/04:30pm WNW 21 28 - - - - - - - 14.6 1003.7 0.0
02/04:02pm WNW 18 28 - - - - - - - 14.0 1003.4 0.0
02/04:00pm WNW 19 28 - - - - - - - 14.0 1003.4 0.0
02/03:30pm WNW 22 32 - - - - - - - 14.8 1003.3 0.0
02/03:23pm WNW 22 32 - - - - - - - 14.9 1003.3 0.0
02/03:00pm NW 20 27 - - - - - - - 15.0 1003.2 0.0
02/02:53pm WNW 19 26 - - - - - - - 15.1 1003.2 0.0
02/02:30pm W 17 22 - - - - - - - 14.6 1004.4 0.0
02/02:00pm WNW 14 20 - - - - - - - 15.5 1004.4 0.0
02/01:30pm WNW 18 25 - - - - - - - 15.9 1004.6 0.0
02/01:00pm WNW 14 24 - - - - - - - 15.5 1004.8 0.0
02/12:30pm NW 14 22 - - - - - - - 15.4 1005.6 0.0
02/12:21pm NW 18 28 - - - - - - - 15.4 1005.4 0.0
02/12:00pm NW 8 18 - - - - - - - 15.0 1006.0 0.0
02/11:33am WNW 17 28 - - - - - - - 14.5 1006.8 0.0
02/11:30am WNW 18 24 - - - - - - - 14.3 1007.0 0.0
02/11:04am WNW 17 29 - - - - - - - 14.2 1006.5 0.0
02/11:00am WNW 14 21 - - - - - - - 14.1 1006.5 0.0
02/10:30am WNW 12 18 - - - - - - - 13.4 1006.9 0.0
02/10:00am NW 12 21 - - - - - - - 13.0 1006.9 0.0
02/09:30am NW 5 9 - - - - - - - 12.8 1007.1 0.0
02/09:00am NW 19 26 - - - - - - - 12.7 1006.9 0.0
02/08:30am NW 12 18 - - - - - - - 12.2 1007.5 0.0
02/08:00am NW 10 19 - - - - - - - 11.7 1007.5 0.0
02/07:30am NW 9 13 - - - - - - - 11.1 1007.3 0.0
02/07:00am NW 12 19 - - - - - - - 10.9 1007.1 0.0
02/06:30am NNW 6 9 - - - - - - - 9.7 1007.1 0.0
02/06:00am WNW 8 12 - - - - - - - 9.7 1007.2 0.0
02/05:30am NW 10 14 - - - - - - - 9.7 1006.9 0.0
02/05:00am NW 8 13 - - - - - - - 9.8 1007.1 0.0
02/04:30am NW 8 12 - - - - - - - 9.8 1007.0 0.0
02/04:00am NW 9 12 - - - - - - - 9.4 1007.2 0.0
02/03:30am NW 11 17 - - - - - - - 8.9 1007.4 0.0
02/03:00am NW 12 18 - - - - - - - 8.9 1007.6 0.0
02/02:30am NW 13 18 - - - - - - - 8.5 1007.8 0.0
02/02:00am WNW 10 18 - - - - - - - 8.1 1007.9 0.0
02/01:30am NW 10 14 - - - - - - - 8.1 1008.0 0.0
02/01:00am NW 14 21 - - - - - - - 8.2 1008.1 0.0
02/12:30am WNW 9 15 - - - - - - - 7.9 1008.4 0.0
02/12:00am WNW 10 16 - - - - - - - 8.1 1008.6 0.0
 
Date/Time
EST
Wind Sea
Height
m
Swell Vis
km
Cloud Weather Temp
°C
Press
hPa
Rain since
9am
mm
Dir  Spd
kts
Gust
kts
Height
m
Period
s
Dir
01/11:30pm WNW 7 10 - - - - - - - 7.8 1008.7 0.0
01/11:00pm WNW 8 10 - - - - - - - 8.6 1008.7 0.0
01/10:30pm WNW 3 8 - - - - - - - 8.0 1008.4 0.0
01/10:00pm W 6 7 - - - - - - - 8.4 1008.2 0.0
01/09:30pm WSW 5 7 - - - - - - - 9.7 1007.9 0.0
01/09:00pm WSW 5 7 - - - - - - - 9.9 1007.6 0.0
01/08:30pm SSW 5 7 - - - - - - - 10.0 1007.5 0.0
01/08:00pm SSW 6 8 - - - - - - - 9.9 1007.3 0.0
01/07:30pm SSW 9 11 - - - - - - - 9.8 1006.9 0.0
01/07:00pm SSW 9 10 - - - - - - - 9.7 1006.3 0.0
01/06:30pm SSW 10 14 - - - - - - - 9.9 1005.9 0.0
01/06:00pm SSW 8 10 - - - - - - - 10.0 1005.4 0.0
01/05:30pm S 13 16 - - - - - - - 10.3 1005.2 0.0
01/05:00pm SSW 16 19 - - - - - - - 10.7 1004.7 0.0
01/04:30pm SW 13 20 - - - - - - - 11.2 1003.8 0.0
01/04:27pm WSW 9 20 - - - - - - - 11.6 1003.7 0.0
01/04:00pm NE 3 4 - - - - - - - 12.1 1002.9 0.0
01/03:30pm NE 2 2 - - - - - - - 12.8 1002.7 0.0
01/03:00pm NE 1 3 - - - - - - - 14.2 1002.4 0.0
01/02:30pm CALM 0 1 - - - - - - - 15.5 1002.3 0.0
01/02:00pm NE 2 3 - - - - - - - 14.3 1002.1 0.0
01/01:30pm N 3 4 - - - - - - - 15.0 1002.0 0.0
01/01:00pm N 3 4 - - - - - - - 14.6 1001.7 0.0
01/12:30pm CALM 0 3 - - - - - - - 15.1 1001.9 0.0
01/12:00pm N 3 5 - - - - - - - 15.5 1002.0 0.0
01/11:30am NE 5 8 - - - - - - - 14.4 1002.1 0.0
01/11:00am ENE 6 8 - - - - - - - 13.7 1002.2 0.0
01/10:30am NE 6 8 - - - - - - - 13.2 1002.2 0.0
01/10:00am N 4 6 - - - - - - - 13.3 1002.0 0.0
01/09:30am N 4 6 - - - - - - - 12.7 1001.9 0.0
01/09:00am NNE 4 6 - - - - - - - 11.7 1001.8 0.0
01/08:30am NE 7 9 - - - - - - - 10.4 1001.7 0.0
01/08:00am N 8 11 - - - - - - - 10.2 1001.5 0.0
01/07:30am N 8 10 - - - - - - - 9.7 1001.3 0.0
01/07:00am N 8 11 - - - - - - - 9.5 1001.0 0.0
01/06:30am NNE 5 8 - - - - - - - 9.7 1001.1 0.0
01/06:00am NNE 4 7 - - - - - - - 10.5 1001.0 0.0
01/05:30am NE 6 11 - - - - - - - 10.3 1001.0 0.0
01/05:00am NE 6 11 - - - - - - - 10.2 1000.9 0.0
01/04:30am NE 6 8 - - - - - - - 10.0 1000.9 0.0
01/04:00am NNE 8 11 - - - - - - - 10.4 1001.0 0.0
01/03:30am NE 5 7 - - - - - - - 10.0 1001.3 0.0
01/03:00am NNE 8 9 - - - - - - - 10.0 1001.4 0.0
01/02:30am NE 8 10 - - - - - - - 9.9 1001.6 0.0
01/02:00am NNE 6 9 - - - - - - - 9.7 1001.6 0.0
01/01:30am NE 7 11 - - - - - - - 9.9 1001.8 0.0
01/01:00am NE 7 9 - - - - - - - 9.7 1001.9 0.0
01/12:30am NE 6 9 - - - - - - - 9.8 1002.4 0.0
01/12:00am NE 7 10 - - - - - - - 10.0 1002.6 0.0
 
Date/Time
EST
Wind Sea
Height
m
Swell Vis
km
Cloud Weather Temp
°C
Press
hPa
Rain since
9am
mm
Dir  Spd
kts
Gust
kts
Height
m
Period
s
Dir
31/11:30pm NE 6 9 - - - - - - - 9.6 1002.8 0.0
31/11:00pm NNE 4 5 - - - - - - - 9.0 1003.3 0.0
31/10:30pm NE 9 12 - - - - - - - 9.9 1003.4 0.0
31/10:00pm NNE 8 10 - - - - - - - 9.6 1004.0 0.0
31/09:30pm N 7 10 - - - - - - - 9.5 1004.1 0.0
31/09:00pm NNE 8 11 - - - - - - - 8.6 1004.5 0.0
31/08:30pm N 5 6 - - - - - - - 9.0 1004.5 0.0
31/08:00pm N 6 8 - - - - - - - 9.5 1004.7 0.0
31/07:30pm N 7 9 - - - - - - - 9.8 1004.6 0.0
31/07:00pm N 8 11 - - - - - - - 10.8 1004.5 0.0
31/06:30pm N 8 10 - - - - - - - 10.8 1004.6 0.0
31/06:00pm N 6 8 - - - - - - - 11.2 1004.5 0.0
31/05:30pm NNW 6 7 - - - - - - - 11.2 1004.4 0.0
31/05:00pm NNW 7 9 - - - - - - - 12.6 1004.3 0.0
31/04:30pm N 7 9 - - - - - - - 12.9 1004.3 0.0
31/04:00pm NNW 5 7 - - - - - - - 14.0 1004.3 0.0
31/03:30pm NNW 6 8 - - - - - - - 15.4 1004.1 0.0
31/03:00pm N 5 8 - - - - - - - 15.7 1004.1 0.0
31/02:30pm N 8 10 - - - - - - - 14.7 1004.1 0.0
31/02:00pm NNW 5 9 - - - - - - - 14.5 1004.2 0.0
31/01:30pm N 9 15 - - - - - - - 15.2 1004.4 0.0
31/01:00pm NNW 6 10 - - - - - - - 14.6 1005.0 0.0
31/12:30pm NW 9 14 - - - - - - - 15.6 1005.4 0.0
31/12:00pm NW 6 9 - - - - - - - 14.9 1005.6 0.0
31/11:30am NW 9 14 - - - - - - - 14.9 1006.0 0.0
31/11:00am NW 7 12 - - - - - - - 14.8 1006.4 0.0
31/10:30am NW 10 18 - - - - - - - 14.0 1006.4 0.0
31/10:00am NW 10 16 - - - - - - - 13.8 1006.5 0.0
31/09:30am NNW 8 10 - - - - - - - 13.5 1006.6 0.0
31/09:00am NNW 9 15 - - - - - - - 12.8 1006.4 0.0
31/08:30am NW 7 10 - - - - - - - 12.4 1006.2 0.0

Other formats

Comma delimited format used in spreadsheet applications
http://www.bom.gov.au/fwo/IDT60701/IDT60701.94951.axf

JavaScript Object Notation format (JSON) in row-major order
http://www.bom.gov.au/fwo/IDT60701/IDT60701.94951.json

Data quality

Most of these data are generated automatically and are frequently updated. Quality checks on data are not normally performed. It is possible for incorrect values to appear. Refer to information at About Latest Weather Observations and please check the disclaimer before using these data.